sensor_id;sensor_type;location;lat;lon;timestamp;P1;durP1;ratioP1;P2;durP2;ratioP2
870;SDS011;422;51.280;7.236;2023-03-21T00:00:00;8.17;;;5.80;;
870;SDS011;422;51.280;7.236;2023-03-21T00:02:28;16.80;;;7.70;;
870;SDS011;422;51.280;7.236;2023-03-21T00:04:56;12.50;;;6.90;;
870;SDS011;422;51.280;7.236;2023-03-21T00:07:23;10.80;;;6.77;;
870;SDS011;422;51.280;7.236;2023-03-21T00:09:50;12.57;;;7.00;;
870;SDS011;422;51.280;7.236;2023-03-21T00:12:20;15.50;;;7.40;;
870;SDS011;422;51.280;7.236;2023-03-21T00:14:47;12.13;;;6.80;;
870;SDS011;422;51.280;7.236;2023-03-21T00:17:15;18.83;;;7.50;;
870;SDS011;422;51.280;7.236;2023-03-21T00:19:42;14.93;;;7.63;;
870;SDS011;422;51.280;7.236;2023-03-21T00:22:10;11.43;;;7.10;;
870;SDS011;422;51.280;7.236;2023-03-21T00:24:37;14.10;;;7.00;;
870;SDS011;422;51.280;7.236;2023-03-21T00:27:05;14.67;;;7.53;;
870;SDS011;422;51.280;7.236;2023-03-21T00:29:34;14.93;;;7.40;;
870;SDS011;422;51.280;7.236;2023-03-21T00:32:01;12.60;;;6.90;;
870;SDS011;422;51.280;7.236;2023-03-21T00:34:28;10.67;;;6.50;;
870;SDS011;422;51.280;7.236;2023-03-21T00:36:57;15.60;;;6.17;;
870;SDS011;422;51.280;7.236;2023-03-21T00:39:25;13.87;;;6.33;;
870;SDS011;422;51.280;7.236;2023-03-21T00:41:53;7.60;;;6.57;;
870;SDS011;422;51.280;7.236;2023-03-21T00:44:20;12.33;;;6.60;;
870;SDS011;422;51.280;7.236;2023-03-21T00:46:49;10.90;;;6.47;;
870;SDS011;422;51.280;7.236;2023-03-21T00:49:16;12.70;;;6.67;;
870;SDS011;422;51.280;7.236;2023-03-21T00:51:45;12.00;;;7.97;;
870;SDS011;422;51.280;7.236;2023-03-21T00:54:16;11.77;;;6.50;;
870;SDS011;422;51.280;7.236;2023-03-21T00:56:43;13.53;;;8.30;;
870;SDS011;422;51.280;7.236;2023-03-21T00:59:10;12.17;;;6.37;;
870;SDS011;422;51.280;7.236;2023-03-21T01:01:38;11.80;;;6.60;;
870;SDS011;422;51.280;7.236;2023-03-21T01:04:06;12.70;;;6.53;;
870;SDS011;422;51.280;7.236;2023-03-21T01:06:37;12.93;;;6.33;;
870;SDS011;422;51.280;7.236;2023-03-21T01:09:05;12.10;;;6.27;;
870;SDS011;422;51.280;7.236;2023-03-21T01:11:33;11.33;;;6.43;;
870;SDS011;422;51.280;7.236;2023-03-21T01:14:00;11.40;;;6.67;;
870;SDS011;422;51.280;7.236;2023-03-21T01:16:28;12.63;;;7.07;;
870;SDS011;422;51.280;7.236;2023-03-21T01:18:55;14.03;;;6.53;;
870;SDS011;422;51.280;7.236;2023-03-21T01:21:25;15.70;;;6.77;;
870;SDS011;422;51.280;7.236;2023-03-21T01:23:52;13.40;;;6.30;;
870;SDS011;422;51.280;7.236;2023-03-21T01:26:19;14.83;;;7.70;;
870;SDS011;422;51.280;7.236;2023-03-21T01:28:46;10.90;;;6.40;;
870;SDS011;422;51.280;7.236;2023-03-21T01:31:14;13.97;;;6.67;;
870;SDS011;422;51.280;7.236;2023-03-21T01:33:42;15.63;;;6.83;;
870;SDS011;422;51.280;7.236;2023-03-21T01:36:12;12.83;;;6.93;;
870;SDS011;422;51.280;7.236;2023-03-21T01:38:43;11.50;;;7.50;;
870;SDS011;422;51.280;7.236;2023-03-21T01:41:13;12.43;;;6.90;;
870;SDS011;422;51.280;7.236;2023-03-21T01:43:45;16.17;;;7.23;;
870;SDS011;422;51.280;7.236;2023-03-21T01:46:31;10.00;;;6.37;;
870;SDS011;422;51.280;7.236;2023-03-21T01:49:02;12.13;;;7.30;;
870;SDS011;422;51.280;7.236;2023-03-21T01:51:34;14.27;;;8.53;;
870;SDS011;422;51.280;7.236;2023-03-21T01:54:06;15.37;;;7.47;;
870;SDS011;422;51.280;7.236;2023-03-21T01:56:38;12.20;;;8.20;;
870;SDS011;422;51.280;7.236;2023-03-21T01:59:07;10.20;;;6.83;;
870;SDS011;422;51.280;7.236;2023-03-21T02:01:38;16.90;;;11.20;;
870;SDS011;422;51.280;7.236;2023-03-21T02:04:09;12.93;;;8.53;;
870;SDS011;422;51.280;7.236;2023-03-21T02:06:39;20.50;;;8.10;;
870;SDS011;422;51.280;7.236;2023-03-21T02:09:12;10.27;;;8.37;;
870;SDS011;422;51.280;7.236;2023-03-21T02:11:43;15.73;;;9.00;;
870;SDS011;422;51.280;7.236;2023-03-21T02:14:13;12.73;;;9.30;;
870;SDS011;422;51.280;7.236;2023-03-21T02:16:45;20.13;;;9.77;;
870;SDS011;422;51.280;7.236;2023-03-21T02:19:22;15.90;;;9.97;;
870;SDS011;422;51.280;7.236;2023-03-21T02:25:44;17.30;;;8.80;;
870;SDS011;422;51.280;7.236;2023-03-21T02:28:39;15.27;;;9.63;;
870;SDS011;422;51.280;7.236;2023-03-21T02:31:17;16.70;;;9.00;;
870;SDS011;422;51.280;7.236;2023-03-21T02:37:17;13.03;;;8.83;;
870;SDS011;422;51.280;7.236;2023-03-21T02:39:53;16.57;;;9.70;;
870;SDS011;422;51.280;7.236;2023-03-21T02:42:27;14.60;;;8.50;;
870;SDS011;422;51.280;7.236;2023-03-21T02:45:00;15.97;;;9.50;;
870;SDS011;422;51.280;7.236;2023-03-21T02:47:35;14.37;;;8.73;;
870;SDS011;422;51.280;7.236;2023-03-21T02:50:09;15.00;;;10.10;;
870;SDS011;422;51.280;7.236;2023-03-21T02:52:41;13.43;;;10.00;;
870;SDS011;422;51.280;7.236;2023-03-21T02:55:11;14.80;;;9.50;;
870;SDS011;422;51.280;7.236;2023-03-21T02:57:41;20.93;;;10.77;;
870;SDS011;422;51.280;7.236;2023-03-21T03:00:11;17.90;;;10.47;;
870;SDS011;422;51.280;7.236;2023-03-21T03:02:43;14.77;;;10.60;;
870;SDS011;422;51.280;7.236;2023-03-21T03:05:11;20.80;;;11.53;;
870;SDS011;422;51.280;7.236;2023-03-21T03:07:43;23.57;;;10.87;;
870;SDS011;422;51.280;7.236;2023-03-21T03:10:21;20.60;;;11.63;;
870;SDS011;422;51.280;7.236;2023-03-21T03:13:00;17.83;;;10.73;;
870;SDS011;422;51.280;7.236;2023-03-21T03:15:38;18.03;;;11.60;;
870;SDS011;422;51.280;7.236;2023-03-21T03:18:13;24.07;;;11.13;;
870;SDS011;422;51.280;7.236;2023-03-21T03:20:51;15.90;;;10.23;;
870;SDS011;422;51.280;7.236;2023-03-21T03:23:29;21.37;;;10.50;;
870;SDS011;422;51.280;7.236;2023-03-21T03:26:02;18.53;;;10.17;;
870;SDS011;422;51.280;7.236;2023-03-21T03:28:34;15.03;;;10.50;;
870;SDS011;422;51.280;7.236;2023-03-21T03:31:04;14.43;;;10.50;;
870;SDS011;422;51.280;7.236;2023-03-21T03:33:36;18.37;;;10.23;;
870;SDS011;422;51.280;7.236;2023-03-21T03:36:06;17.67;;;9.97;;
870;SDS011;422;51.280;7.236;2023-03-21T03:38:37;15.70;;;10.30;;
870;SDS011;422;51.280;7.236;2023-03-21T03:41:07;13.93;;;9.90;;
870;SDS011;422;51.280;7.236;2023-03-21T03:43:39;18.37;;;11.00;;
870;SDS011;422;51.280;7.236;2023-03-21T03:46:14;15.20;;;9.63;;
870;SDS011;422;51.280;7.236;2023-03-21T03:48:46;17.23;;;10.67;;
870;SDS011;422;51.280;7.236;2023-03-21T03:51:19;12.20;;;9.47;;
870;SDS011;422;51.280;7.236;2023-03-21T03:53:51;18.30;;;11.10;;
870;SDS011;422;51.280;7.236;2023-03-21T03:56:21;21.00;;;11.23;;
870;SDS011;422;51.280;7.236;2023-03-21T03:58:49;19.93;;;11.93;;
870;SDS011;422;51.280;7.236;2023-03-21T04:01:17;19.20;;;11.50;;
870;SDS011;422;51.280;7.236;2023-03-21T04:03:44;17.70;;;10.77;;
870;SDS011;422;51.280;7.236;2023-03-21T04:06:13;16.80;;;10.13;;
870;SDS011;422;51.280;7.236;2023-03-21T04:08:40;17.10;;;10.43;;
870;SDS011;422;51.280;7.236;2023-03-21T04:11:11;18.03;;;11.23;;
870;SDS011;422;51.280;7.236;2023-03-21T04:13:39;20.57;;;10.77;;
870;SDS011;422;51.280;7.236;2023-03-21T04:16:07;18.93;;;10.57;;
870;SDS011;422;51.280;7.236;2023-03-21T04:18:35;13.23;;;10.57;;
870;SDS011;422;51.280;7.236;2023-03-21T04:21:06;24.27;;;10.53;;
870;SDS011;422;51.280;7.236;2023-03-21T04:23:34;11.47;;;8.90;;
870;SDS011;422;51.280;7.236;2023-03-21T04:26:02;18.23;;;10.83;;
870;SDS011;422;51.280;7.236;2023-03-21T04:28:31;17.37;;;9.90;;
870;SDS011;422;51.280;7.236;2023-03-21T04:31:00;16.80;;;9.40;;
870;SDS011;422;51.280;7.236;2023-03-21T04:33:29;16.93;;;9.77;;
870;SDS011;422;51.280;7.236;2023-03-21T04:35:56;15.10;;;8.97;;
870;SDS011;422;51.280;7.236;2023-03-21T04:38:24;18.27;;;10.03;;
870;SDS011;422;51.280;7.236;2023-03-21T04:40:57;17.30;;;9.03;;
870;SDS011;422;51.280;7.236;2023-03-21T04:43:25;14.50;;;8.57;;
870;SDS011;422;51.280;7.236;2023-03-21T04:45:55;12.23;;;8.70;;
870;SDS011;422;51.280;7.236;2023-03-21T04:48:22;10.77;;;8.50;;
870;SDS011;422;51.280;7.236;2023-03-21T04:50:50;19.37;;;8.37;;
870;SDS011;422;51.280;7.236;2023-03-21T04:53:17;11.60;;;8.03;;
870;SDS011;422;51.280;7.236;2023-03-21T04:55:45;19.77;;;9.40;;
870;SDS011;422;51.280;7.236;2023-03-21T04:58:12;14.40;;;7.23;;
870;SDS011;422;51.280;7.236;2023-03-21T05:00:39;15.17;;;7.83;;
870;SDS011;422;51.280;7.236;2023-03-21T05:03:07;12.43;;;8.20;;
870;SDS011;422;51.280;7.236;2023-03-21T05:05:35;12.10;;;7.50;;
870;SDS011;422;51.280;7.236;2023-03-21T05:08:02;14.70;;;7.60;;
870;SDS011;422;51.280;7.236;2023-03-21T05:10:30;12.80;;;7.40;;
870;SDS011;422;51.280;7.236;2023-03-21T05:12:59;12.63;;;7.17;;
870;SDS011;422;51.280;7.236;2023-03-21T05:15:26;11.07;;;7.07;;
870;SDS011;422;51.280;7.236;2023-03-21T05:17:53;9.30;;;7.23;;
870;SDS011;422;51.280;7.236;2023-03-21T05:20:24;10.67;;;6.70;;
870;SDS011;422;51.280;7.236;2023-03-21T05:22:51;12.50;;;8.83;;
870;SDS011;422;51.280;7.236;2023-03-21T05:25:18;9.80;;;6.80;;
870;SDS011;422;51.280;7.236;2023-03-21T05:27:58;11.63;;;7.10;;
870;SDS011;422;51.280;7.236;2023-03-21T05:30:26;15.50;;;6.43;;
870;SDS011;422;51.280;7.236;2023-03-21T05:32:54;10.70;;;7.23;;
870;SDS011;422;51.280;7.236;2023-03-21T05:35:21;11.40;;;6.80;;
870;SDS011;422;51.280;7.236;2023-03-21T05:37:49;18.90;;;7.50;;
870;SDS011;422;51.280;7.236;2023-03-21T05:40:17;10.70;;;6.80;;
870;SDS011;422;51.280;7.236;2023-03-21T05:42:44;13.07;;;7.60;;
870;SDS011;422;51.280;7.236;2023-03-21T05:45:11;10.30;;;7.10;;
870;SDS011;422;51.280;7.236;2023-03-21T05:47:39;9.67;;;6.40;;
870;SDS011;422;51.280;7.236;2023-03-21T05:50:06;15.10;;;7.40;;
870;SDS011;422;51.280;7.236;2023-03-21T05:52:35;9.80;;;6.70;;
870;SDS011;422;51.280;7.236;2023-03-21T05:55:04;26.13;;;16.10;;
870;SDS011;422;51.280;7.236;2023-03-21T05:57:31;13.90;;;9.10;;
870;SDS011;422;51.280;7.236;2023-03-21T06:00:03;11.90;;;7.30;;
870;SDS011;422;51.280;7.236;2023-03-21T06:02:31;14.17;;;8.73;;
870;SDS011;422;51.280;7.236;2023-03-21T06:04:58;16.50;;;11.33;;
870;SDS011;422;51.280;7.236;2023-03-21T06:07:25;17.93;;;9.77;;
870;SDS011;422;51.280;7.236;2023-03-21T06:09:52;17.27;;;10.80;;
870;SDS011;422;51.280;7.236;2023-03-21T06:12:21;19.20;;;9.20;;
870;SDS011;422;51.280;7.236;2023-03-21T06:14:48;19.80;;;12.00;;
870;SDS011;422;51.280;7.236;2023-03-21T06:17:15;13.10;;;9.77;;
870;SDS011;422;51.280;7.236;2023-03-21T06:19:42;17.03;;;10.17;;
870;SDS011;422;51.280;7.236;2023-03-21T06:22:09;16.47;;;9.80;;
870;SDS011;422;51.280;7.236;2023-03-21T06:24:36;12.97;;;9.77;;
870;SDS011;422;51.280;7.236;2023-03-21T06:27:04;12.30;;;7.27;;
870;SDS011;422;51.280;7.236;2023-03-21T06:29:32;14.80;;;9.40;;
870;SDS011;422;51.280;7.236;2023-03-21T06:31:59;16.17;;;7.93;;
870;SDS011;422;51.280;7.236;2023-03-21T06:34:27;15.50;;;9.53;;
870;SDS011;422;51.280;7.236;2023-03-21T06:36:54;16.37;;;8.70;;
870;SDS011;422;51.280;7.236;2023-03-21T06:39:21;13.60;;;8.20;;
870;SDS011;422;51.280;7.236;2023-03-21T06:41:48;10.20;;;6.70;;
870;SDS011;422;51.280;7.236;2023-03-21T06:44:15;25.00;;;12.17;;
870;SDS011;422;51.280;7.236;2023-03-21T06:46:43;12.87;;;7.37;;
870;SDS011;422;51.280;7.236;2023-03-21T06:49:10;15.67;;;9.30;;
870;SDS011;422;51.280;7.236;2023-03-21T06:51:37;15.17;;;8.40;;
870;SDS011;422;51.280;7.236;2023-03-21T06:54:04;13.87;;;7.43;;
870;SDS011;422;51.280;7.236;2023-03-21T06:56:31;15.20;;;7.83;;
870;SDS011;422;51.280;7.236;2023-03-21T06:58:58;14.30;;;8.10;;
870;SDS011;422;51.280;7.236;2023-03-21T07:01:26;14.77;;;8.40;;
870;SDS011;422;51.280;7.236;2023-03-21T07:03:56;18.03;;;7.90;;
870;SDS011;422;51.280;7.236;2023-03-21T07:06:23;13.37;;;7.47;;
870;SDS011;422;51.280;7.236;2023-03-21T07:08:52;11.57;;;6.87;;
870;SDS011;422;51.280;7.236;2023-03-21T07:11:20;12.73;;;7.70;;
870;SDS011;422;51.280;7.236;2023-03-21T07:13:48;10.60;;;7.30;;
870;SDS011;422;51.280;7.236;2023-03-21T07:16:16;15.07;;;8.30;;
870;SDS011;422;51.280;7.236;2023-03-21T07:18:45;16.70;;;8.77;;
870;SDS011;422;51.280;7.236;2023-03-21T07:21:14;14.93;;;9.90;;
870;SDS011;422;51.280;7.236;2023-03-21T07:23:41;20.43;;;9.33;;
870;SDS011;422;51.280;7.236;2023-03-21T07:26:09;16.20;;;8.70;;
870;SDS011;422;51.280;7.236;2023-03-21T07:28:36;24.07;;;8.40;;
870;SDS011;422;51.280;7.236;2023-03-21T07:31:04;14.30;;;8.20;;
870;SDS011;422;51.280;7.236;2023-03-21T07:33:33;18.30;;;9.17;;
870;SDS011;422;51.280;7.236;2023-03-21T07:36:00;16.33;;;9.50;;
870;SDS011;422;51.280;7.236;2023-03-21T07:38:29;10.87;;;8.57;;
870;SDS011;422;51.280;7.236;2023-03-21T07:40:57;15.00;;;8.27;;
870;SDS011;422;51.280;7.236;2023-03-21T07:43:25;14.03;;;8.20;;
870;SDS011;422;51.280;7.236;2023-03-21T07:45:55;21.77;;;10.10;;
870;SDS011;422;51.280;7.236;2023-03-21T07:48:22;11.30;;;7.87;;
870;SDS011;422;51.280;7.236;2023-03-21T07:50:50;18.37;;;10.30;;
870;SDS011;422;51.280;7.236;2023-03-21T07:53:17;17.20;;;7.97;;
870;SDS011;422;51.280;7.236;2023-03-21T07:55:49;13.80;;;8.90;;
870;SDS011;422;51.280;7.236;2023-03-21T07:58:17;17.50;;;9.47;;
870;SDS011;422;51.280;7.236;2023-03-21T08:00:44;17.80;;;8.93;;
870;SDS011;422;51.280;7.236;2023-03-21T08:03:11;18.67;;;8.50;;
870;SDS011;422;51.280;7.236;2023-03-21T08:05:38;13.20;;;8.70;;
870;SDS011;422;51.280;7.236;2023-03-21T08:08:06;14.10;;;9.30;;
870;SDS011;422;51.280;7.236;2023-03-21T08:10:33;16.10;;;8.83;;
870;SDS011;422;51.280;7.236;2023-03-21T08:13:02;18.23;;;9.50;;
870;SDS011;422;51.280;7.236;2023-03-21T08:15:30;18.87;;;9.30;;
870;SDS011;422;51.280;7.236;2023-03-21T08:17:57;13.60;;;9.33;;
870;SDS011;422;51.280;7.236;2023-03-21T08:20:24;19.97;;;9.20;;
870;SDS011;422;51.280;7.236;2023-03-21T08:22:51;14.83;;;9.40;;
870;SDS011;422;51.280;7.236;2023-03-21T08:25:19;13.90;;;9.07;;
870;SDS011;422;51.280;7.236;2023-03-21T08:27:47;12.47;;;9.10;;
870;SDS011;422;51.280;7.236;2023-03-21T08:30:17;16.90;;;9.77;;
870;SDS011;422;51.280;7.236;2023-03-21T08:32:46;18.13;;;10.30;;
870;SDS011;422;51.280;7.236;2023-03-21T08:35:16;16.53;;;10.23;;
870;SDS011;422;51.280;7.236;2023-03-21T08:37:44;19.40;;;9.83;;
870;SDS011;422;51.280;7.236;2023-03-21T08:40:12;23.20;;;16.47;;
870;SDS011;422;51.280;7.236;2023-03-21T08:42:40;17.60;;;12.30;;
870;SDS011;422;51.280;7.236;2023-03-21T08:45:09;23.70;;;15.43;;
870;SDS011;422;51.280;7.236;2023-03-21T08:47:38;23.03;;;12.30;;
870;SDS011;422;51.280;7.236;2023-03-21T08:50:06;16.60;;;11.30;;
870;SDS011;422;51.280;7.236;2023-03-21T08:52:35;18.50;;;12.00;;
870;SDS011;422;51.280;7.236;2023-03-21T08:55:02;17.63;;;11.20;;
870;SDS011;422;51.280;7.236;2023-03-21T08:57:30;11.93;;;8.37;;
870;SDS011;422;51.280;7.236;2023-03-21T08:59:57;14.23;;;10.00;;
870;SDS011;422;51.280;7.236;2023-03-21T09:02:25;14.30;;;9.77;;
870;SDS011;422;51.280;7.236;2023-03-21T09:04:53;13.90;;;8.90;;
870;SDS011;422;51.280;7.236;2023-03-21T09:07:23;13.17;;;9.53;;
870;SDS011;422;51.280;7.236;2023-03-21T09:09:50;13.67;;;9.10;;
870;SDS011;422;51.280;7.236;2023-03-21T09:12:18;15.90;;;9.70;;
870;SDS011;422;51.280;7.236;2023-03-21T09:14:45;15.87;;;9.77;;
870;SDS011;422;51.280;7.236;2023-03-21T09:17:12;17.27;;;10.60;;
870;SDS011;422;51.280;7.236;2023-03-21T09:19:39;18.87;;;12.03;;
870;SDS011;422;51.280;7.236;2023-03-21T09:22:08;22.53;;;13.50;;
870;SDS011;422;51.280;7.236;2023-03-21T09:24:38;18.80;;;12.33;;
870;SDS011;422;51.280;7.236;2023-03-21T09:27:06;14.90;;;8.03;;
870;SDS011;422;51.280;7.236;2023-03-21T09:29:34;13.63;;;7.73;;
870;SDS011;422;51.280;7.236;2023-03-21T09:32:02;14.30;;;10.83;;
870;SDS011;422;51.280;7.236;2023-03-21T09:34:30;14.50;;;9.17;;
870;SDS011;422;51.280;7.236;2023-03-21T09:36:58;9.93;;;7.40;;
870;SDS011;422;51.280;7.236;2023-03-21T09:39:27;18.30;;;11.07;;
870;SDS011;422;51.280;7.236;2023-03-21T09:42:02;12.10;;;8.27;;
870;SDS011;422;51.280;7.236;2023-03-21T09:44:39;19.10;;;11.60;;
870;SDS011;422;51.280;7.236;2023-03-21T09:47:15;13.10;;;8.70;;
870;SDS011;422;51.280;7.236;2023-03-21T09:49:46;16.77;;;10.37;;
870;SDS011;422;51.280;7.236;2023-03-21T09:52:18;12.73;;;7.73;;
870;SDS011;422;51.280;7.236;2023-03-21T09:54:49;15.17;;;8.63;;
870;SDS011;422;51.280;7.236;2023-03-21T09:57:21;14.93;;;8.37;;
870;SDS011;422;51.280;7.236;2023-03-21T09:59:55;17.70;;;9.37;;
870;SDS011;422;51.280;7.236;2023-03-21T10:02:33;22.30;;;10.00;;
870;SDS011;422;51.280;7.236;2023-03-21T10:05:08;15.40;;;6.57;;
870;SDS011;422;51.280;7.236;2023-03-21T10:07:39;12.93;;;6.67;;
870;SDS011;422;51.280;7.236;2023-03-21T10:10:15;10.17;;;7.43;;
870;SDS011;422;51.280;7.236;2023-03-21T10:12:45;15.30;;;7.93;;
870;SDS011;422;51.280;7.236;2023-03-21T10:15:16;14.07;;;7.00;;
870;SDS011;422;51.280;7.236;2023-03-21T10:17:46;21.40;;;10.00;;
870;SDS011;422;51.280;7.236;2023-03-21T10:20:19;12.53;;;7.70;;
870;SDS011;422;51.280;7.236;2023-03-21T10:22:48;14.40;;;10.40;;
870;SDS011;422;51.280;7.236;2023-03-21T10:25:19;20.07;;;11.47;;
870;SDS011;422;51.280;7.236;2023-03-21T10:27:49;15.70;;;7.77;;
870;SDS011;422;51.280;7.236;2023-03-21T10:30:20;12.87;;;7.73;;
870;SDS011;422;51.280;7.236;2023-03-21T10:32:58;8.53;;;6.30;;
870;SDS011;422;51.280;7.236;2023-03-21T10:35:33;10.03;;;6.33;;
870;SDS011;422;51.280;7.236;2023-03-21T10:38:03;8.57;;;6.37;;
870;SDS011;422;51.280;7.236;2023-03-21T10:40:33;9.83;;;5.60;;
870;SDS011;422;51.280;7.236;2023-03-21T10:43:14;8.67;;;6.77;;
870;SDS011;422;51.280;7.236;2023-03-21T10:45:46;16.00;;;6.83;;
870;SDS011;422;51.280;7.236;2023-03-21T10:48:13;12.47;;;7.77;;
870;SDS011;422;51.280;7.236;2023-03-21T10:50:41;15.43;;;7.30;;
870;SDS011;422;51.280;7.236;2023-03-21T10:53:13;12.93;;;6.20;;
870;SDS011;422;51.280;7.236;2023-03-21T10:55:44;13.20;;;7.13;;
870;SDS011;422;51.280;7.236;2023-03-21T10:58:14;10.50;;;6.37;;
870;SDS011;422;51.280;7.236;2023-03-21T11:00:51;12.83;;;5.10;;
870;SDS011;422;51.280;7.236;2023-03-21T11:03:22;8.63;;;5.63;;
870;SDS011;422;51.280;7.236;2023-03-21T11:05:54;9.53;;;4.80;;
870;SDS011;422;51.280;7.236;2023-03-21T11:08:22;8.63;;;4.80;;
870;SDS011;422;51.280;7.236;2023-03-21T11:10:53;11.37;;;5.63;;
870;SDS011;422;51.280;7.236;2023-03-21T11:13:26;8.67;;;5.30;;
870;SDS011;422;51.280;7.236;2023-03-21T11:16:03;9.83;;;6.23;;
870;SDS011;422;51.280;7.236;2023-03-21T11:18:33;7.93;;;5.40;;
870;SDS011;422;51.280;7.236;2023-03-21T11:21:07;9.90;;;5.90;;
870;SDS011;422;51.280;7.236;2023-03-21T11:23:37;11.07;;;7.00;;
870;SDS011;422;51.280;7.236;2023-03-21T11:26:11;10.13;;;6.23;;
870;SDS011;422;51.280;7.236;2023-03-21T11:28:44;10.83;;;6.17;;
870;SDS011;422;51.280;7.236;2023-03-21T11:31:13;8.10;;;5.90;;
870;SDS011;422;51.280;7.236;2023-03-21T11:33:46;7.80;;;5.50;;
870;SDS011;422;51.280;7.236;2023-03-21T11:36:25;10.50;;;5.70;;
870;SDS011;422;51.280;7.236;2023-03-21T11:39:01;10.30;;;6.27;;
870;SDS011;422;51.280;7.236;2023-03-21T11:41:41;8.10;;;4.80;;
870;SDS011;422;51.280;7.236;2023-03-21T11:44:22;9.97;;;6.10;;
870;SDS011;422;51.280;7.236;2023-03-21T11:46:52;5.90;;;5.10;;
870;SDS011;422;51.280;7.236;2023-03-21T11:49:19;6.20;;;4.97;;
870;SDS011;422;51.280;7.236;2023-03-21T11:51:49;9.13;;;5.40;;
870;SDS011;422;51.280;7.236;2023-03-21T11:54:26;9.37;;;5.80;;
870;SDS011;422;51.280;7.236;2023-03-21T11:57:05;12.80;;;7.40;;
870;SDS011;422;51.280;7.236;2023-03-21T11:59:44;12.70;;;9.83;;
870;SDS011;422;51.280;7.236;2023-03-21T12:02:23;22.60;;;13.87;;
870;SDS011;422;51.280;7.236;2023-03-21T12:05:02;10.20;;;8.00;;
870;SDS011;422;51.280;7.236;2023-03-21T12:07:40;12.97;;;9.30;;
870;SDS011;422;51.280;7.236;2023-03-21T12:10:25;13.83;;;9.20;;
870;SDS011;422;51.280;7.236;2023-03-21T12:13:01;14.20;;;9.67;;
870;SDS011;422;51.280;7.236;2023-03-21T12:15:37;12.47;;;8.90;;
870;SDS011;422;51.280;7.236;2023-03-21T12:18:15;11.07;;;8.97;;
870;SDS011;422;51.280;7.236;2023-03-21T12:20:57;11.03;;;8.20;;
870;SDS011;422;51.280;7.236;2023-03-21T12:23:40;15.33;;;10.87;;
870;SDS011;422;51.280;7.236;2023-03-21T12:26:18;12.50;;;7.73;;
870;SDS011;422;51.280;7.236;2023-03-21T12:28:56;13.53;;;9.07;;
870;SDS011;422;51.280;7.236;2023-03-21T12:31:38;15.07;;;10.70;;
870;SDS011;422;51.280;7.236;2023-03-21T12:34:20;12.53;;;6.53;;
870;SDS011;422;51.280;7.236;2023-03-21T12:37:02;13.00;;;9.70;;
870;SDS011;422;51.280;7.236;2023-03-21T12:39:38;11.67;;;7.30;;
870;SDS011;422;51.280;7.236;2023-03-21T12:42:08;12.30;;;8.00;;
870;SDS011;422;51.280;7.236;2023-03-21T12:44:55;11.27;;;6.20;;
870;SDS011;422;51.280;7.236;2023-03-21T12:47:28;6.07;;;4.80;;
870;SDS011;422;51.280;7.236;2023-03-21T12:49:59;7.93;;;5.90;;
870;SDS011;422;51.280;7.236;2023-03-21T12:52:31;12.97;;;7.17;;
870;SDS011;422;51.280;7.236;2023-03-21T12:55:03;10.10;;;6.03;;
870;SDS011;422;51.280;7.236;2023-03-21T12:57:34;9.00;;;6.10;;
870;SDS011;422;51.280;7.236;2023-03-21T13:00:09;9.17;;;6.60;;
870;SDS011;422;51.280;7.236;2023-03-21T13:02:42;13.40;;;7.90;;
870;SDS011;422;51.280;7.236;2023-03-21T13:05:15;14.00;;;8.83;;
870;SDS011;422;51.280;7.236;2023-03-21T13:07:45;13.20;;;7.80;;
870;SDS011;422;51.280;7.236;2023-03-21T13:10:16;12.40;;;7.30;;
870;SDS011;422;51.280;7.236;2023-03-21T13:12:50;10.03;;;7.63;;
870;SDS011;422;51.280;7.236;2023-03-21T13:15:31;13.57;;;7.30;;
870;SDS011;422;51.280;7.236;2023-03-21T13:18:22;12.10;;;8.07;;
870;SDS011;422;51.280;7.236;2023-03-21T13:20:57;8.80;;;6.53;;
870;SDS011;422;51.280;7.236;2023-03-21T13:23:32;11.00;;;6.40;;
870;SDS011;422;51.280;7.236;2023-03-21T13:26:00;12.73;;;8.73;;
870;SDS011;422;51.280;7.236;2023-03-21T13:28:28;7.47;;;5.90;;
870;SDS011;422;51.280;7.236;2023-03-21T13:31:16;9.30;;;7.30;;
870;SDS011;422;51.280;7.236;2023-03-21T13:33:45;12.63;;;8.07;;
870;SDS011;422;51.280;7.236;2023-03-21T13:36:14;10.27;;;6.77;;
870;SDS011;422;51.280;7.236;2023-03-21T13:38:48;13.13;;;7.00;;
870;SDS011;422;51.280;7.236;2023-03-21T13:41:16;7.40;;;6.17;;
870;SDS011;422;51.280;7.236;2023-03-21T13:43:54;11.33;;;7.20;;
870;SDS011;422;51.280;7.236;2023-03-21T13:46:35;11.20;;;6.90;;
870;SDS011;422;51.280;7.236;2023-03-21T13:49:13;10.50;;;6.97;;
870;SDS011;422;51.280;7.236;2023-03-21T13:51:51;7.50;;;6.20;;
870;SDS011;422;51.280;7.236;2023-03-21T13:54:21;8.50;;;5.43;;
870;SDS011;422;51.280;7.236;2023-03-21T13:56:55;8.67;;;6.50;;
870;SDS011;422;51.280;7.236;2023-03-21T13:59:37;7.03;;;6.17;;
870;SDS011;422;51.280;7.236;2023-03-21T14:02:19;11.63;;;6.00;;
870;SDS011;422;51.280;7.236;2023-03-21T14:04:58;10.90;;;7.83;;
870;SDS011;422;51.280;7.236;2023-03-21T14:07:27;10.07;;;8.10;;
870;SDS011;422;51.280;7.236;2023-03-21T14:09:56;9.10;;;5.80;;
870;SDS011;422;51.280;7.236;2023-03-21T14:12:27;12.70;;;8.23;;
870;SDS011;422;51.280;7.236;2023-03-21T14:14:59;17.37;;;10.87;;
870;SDS011;422;51.280;7.236;2023-03-21T14:17:31;11.83;;;6.83;;
870;SDS011;422;51.280;7.236;2023-03-21T14:20:00;8.00;;;6.80;;
870;SDS011;422;51.280;7.236;2023-03-21T14:22:35;7.60;;;5.50;;
870;SDS011;422;51.280;7.236;2023-03-21T14:25:06;6.43;;;5.70;;
870;SDS011;422;51.280;7.236;2023-03-21T14:27:36;7.40;;;5.07;;
870;SDS011;422;51.280;7.236;2023-03-21T14:30:09;7.90;;;5.07;;
870;SDS011;422;51.280;7.236;2023-03-21T14:32:46;8.43;;;5.70;;
870;SDS011;422;51.280;7.236;2023-03-21T14:35:13;7.00;;;5.87;;
870;SDS011;422;51.280;7.236;2023-03-21T14:37:41;9.13;;;6.40;;
870;SDS011;422;51.280;7.236;2023-03-21T14:40:17;7.67;;;6.00;;
870;SDS011;422;51.280;7.236;2023-03-21T14:42:47;7.67;;;6.00;;
870;SDS011;422;51.280;7.236;2023-03-21T14:45:17;7.73;;;5.70;;
870;SDS011;422;51.280;7.236;2023-03-21T14:47:57;8.63;;;6.47;;
870;SDS011;422;51.280;7.236;2023-03-21T14:50:30;9.53;;;5.70;;
870;SDS011;422;51.280;7.236;2023-03-21T14:53:01;7.07;;;5.43;;
870;SDS011;422;51.280;7.236;2023-03-21T14:55:29;10.07;;;5.90;;
870;SDS011;422;51.280;7.236;2023-03-21T14:57:56;6.90;;;5.80;;
870;SDS011;422;51.280;7.236;2023-03-21T15:00:26;7.13;;;6.23;;
870;SDS011;422;51.280;7.236;2023-03-21T15:02:57;7.60;;;5.80;;
870;SDS011;422;51.280;7.236;2023-03-21T15:05:28;6.80;;;5.70;;
870;SDS011;422;51.280;7.236;2023-03-21T15:07:57;11.00;;;7.50;;
870;SDS011;422;51.280;7.236;2023-03-21T15:10:27;6.50;;;5.50;;
870;SDS011;422;51.280;7.236;2023-03-21T15:12:57;9.17;;;6.47;;
870;SDS011;422;51.280;7.236;2023-03-21T15:15:26;9.40;;;6.47;;
870;SDS011;422;51.280;7.236;2023-03-21T15:17:55;7.03;;;5.93;;
870;SDS011;422;51.280;7.236;2023-03-21T15:20:29;6.20;;;5.40;;
870;SDS011;422;51.280;7.236;2023-03-21T15:23:00;9.77;;;5.77;;
870;SDS011;422;51.280;7.236;2023-03-21T15:25:31;8.47;;;6.60;;
870;SDS011;422;51.280;7.236;2023-03-21T15:28:01;8.63;;;5.53;;
870;SDS011;422;51.280;7.236;2023-03-21T15:30:29;6.83;;;5.40;;
870;SDS011;422;51.280;7.236;2023-03-21T15:33:04;6.00;;;5.40;;
870;SDS011;422;51.280;7.236;2023-03-21T15:35:36;6.63;;;5.03;;
870;SDS011;422;51.280;7.236;2023-03-21T15:38:05;7.87;;;5.27;;
870;SDS011;422;51.280;7.236;2023-03-21T15:40:32;5.67;;;5.00;;
870;SDS011;422;51.280;7.236;2023-03-21T15:43:03;5.70;;;4.77;;
870;SDS011;422;51.280;7.236;2023-03-21T15:45:32;9.53;;;6.40;;
870;SDS011;422;51.280;7.236;2023-03-21T15:48:02;7.87;;;4.87;;
870;SDS011;422;51.280;7.236;2023-03-21T15:50:33;7.80;;;5.10;;
870;SDS011;422;51.280;7.236;2023-03-21T15:53:03;6.13;;;4.70;;
870;SDS011;422;51.280;7.236;2023-03-21T15:55:36;7.23;;;5.77;;
870;SDS011;422;51.280;7.236;2023-03-21T15:58:10;7.53;;;5.70;;